Karluk, AK

6:04 AM AKDT on May 23, 2015 (GMT -0800)
Kodiak | | Change Station
CLOSE
Current Station
Airport
Location: Kodiak,
Elevation: 112 ft
Nearby Weather Stations

Elev 112 ft 57.75 °N, 152.49 °W | Updated 11 minutes ago

Mostly Cloudy
Mostly Cloudy
45 °F
Feels Like 41 °F
N
7
Wind Variable Wind from SSE

Today
High -- | Low -- °F
--% Chance of Precip.
Yesterday
High -- | Low -- °F
Precip. -- in
5:41 AM 10:49 PM
Waxing Crescent, 30% visible
Pressure 30.02 in
Visibility 10.0 miles
Clouds Few 1900 ft
Mostly Cloudy 10000 ft
Windchill 41 °F
Dew Point 41 °F
Humidity 86%
Rainfall 0.00 in
Snow Depth Not available.
UV 0 out of 12
Pollen Not available.
Air Quality Not available.
Flu Activity Local Activity
METAR PADQ 231353Z 15006KT 10SM FEW019 BKN100 07/05 A3002 RMK AO2 SLP164 T00720050

More Conditions Fewer Conditions

Pressure 30.02 in
Visibility 10.0 miles
Clouds Few 1900 ft
Mostly Cloudy 10000 ft
Windchill 41 °F
Dew Point 41 °F
Humidity 86%
Rainfall 0.00 in
Snow Depth Not available.
UV 0 out of 12
Pollen Not available.
Air Quality Not available.
Flu Activity Local Activity
METAR PADQ 231353Z 15006KT 10SM FEW019 BKN100 07/05 A3002 RMK AO2 SLP164 T00720050

More Conditions Fewer Conditions

10-Day Weather Forecast

Almanac

Astronomy

May. 23, 2015 Rise Set
Actual Time
Civil Twilight
Nautical Twilight
Astronomical Twilight
Moon
Length of Visible Light
Length of Day
Tomorrow will be .
, % of the Moon is Illuminated

Today's Extremes

State Highs State Lows

Community

WunderPhotos

Upload Photos

1,823,469 photos uploaded!

WunderBlogs® & News

Nearby

Air Quality

  Air Quality AQ Index Pollutant
Not available.

Snow Depth

Station Depth Elevation

Earthquake Activity

City Distance Mag. Time & Date
Minimum magnitude displayed is 2.5.

Coastal Water Temperatures

Place Temperature

Stations

Nearby Weather Stations

Station Location Temp. Windchill Dew Point Humidity Wind Precip. Elev Updated Type